createdAt,value
2018-02-18T00:00:26.732Z,85.61
2018-02-18T00:01:26.740Z,85.99
2018-02-18T00:02:26.750Z,85.70
2018-02-18T00:03:26.794Z,85.32
2018-02-18T00:04:26.788Z,84.75
2018-02-18T00:05:26.809Z,84.75
2018-02-18T00:06:26.816Z,85.23
2018-02-18T00:07:26.833Z,85.32
2018-02-18T00:08:26.857Z,85.42
2018-02-18T00:09:26.849Z,85.89
2018-02-18T00:10:26.866Z,85.42
2018-02-18T00:11:26.879Z,85.42
2018-02-18T00:12:26.893Z,85.32
2018-02-18T00:13:26.934Z,86.08
2018-02-18T00:14:26.921Z,85.99
2018-02-18T00:15:26.968Z,86.08
2018-02-18T00:16:26.942Z,86.18
2018-02-18T00:17:26.961Z,86.18
2018-02-18T00:18:26.987Z,86.36
2018-02-18T00:19:27.018Z,86.46
2018-02-18T00:20:27.020Z,86.18
2018-02-18T00:21:27.011Z,85.99
2018-02-18T00:22:27.031Z,86.18
2018-02-18T00:23:27.041Z,85.70
2018-02-18T00:24:27.054Z,85.42
2018-02-18T00:25:27.071Z,85.42
2018-02-18T00:26:27.122Z,86.27
2018-02-18T00:27:27.108Z,86.74
2018-02-18T00:28:27.112Z,87.12
2018-02-18T00:29:27.127Z,87.59
2018-02-18T00:30:27.137Z,86.74
2018-02-18T00:31:27.170Z,86.08
2018-02-18T00:32:27.192Z,86.36
2018-02-18T00:33:27.198Z,86.18
2018-02-18T00:34:27.227Z,86.18
2018-02-18T00:35:27.245Z,86.18
2018-02-18T00:36:27.231Z,86.65
2018-02-18T00:37:27.242Z,86.93
2018-02-18T00:38:27.249Z,86.55
2018-02-18T00:39:27.275Z,86.18
2018-02-18T00:40:27.305Z,86.65
2018-02-18T00:41:27.296Z,86.74
2018-02-18T00:42:27.318Z,85.99
2018-02-18T00:43:27.369Z,86.27
2018-02-18T00:44:30.560Z,86.46
2018-02-18T00:45:27.356Z,86.18
2018-02-18T00:46:27.379Z,85.89
2018-02-18T00:47:27.379Z,86.65
2018-02-18T00:48:27.406Z,87.50
2018-02-18T00:49:27.412Z,86.74
2018-02-18T00:50:27.420Z,86.46
2018-02-18T00:51:27.426Z,85.89
2018-02-18T00:52:27.436Z,86.74
2018-02-18T00:53:27.488Z,86.36
2018-02-18T00:54:27.463Z,86.08
2018-02-18T00:55:27.476Z,85.99
2018-02-18T00:56:27.490Z,86.46
2018-02-18T00:57:27.509Z,85.99
2018-02-18T00:58:27.533Z,85.32
2018-02-18T00:59:27.533Z,85.70
2018-02-18T01:00:27.566Z,85.61
2018-02-18T01:01:27.557Z,86.08
2018-02-18T01:02:27.584Z,86.08
2018-02-18T01:03:27.587Z,85.89
2018-02-18T01:04:27.600Z,86.18
2018-02-18T01:05:27.643Z,86.65
2018-02-18T01:06:27.629Z,86.74
2018-02-18T01:07:27.642Z,87.31
2018-02-18T01:08:27.653Z,86.93
2018-02-18T01:09:27.671Z,86.93
2018-02-18T01:10:27.705Z,86.74
2018-02-18T01:11:27.691Z,87.21
2018-02-18T01:12:27.713Z,86.55
2018-02-18T01:13:27.719Z,85.99
2018-02-18T01:14:27.728Z,86.27
2018-02-18T01:15:27.770Z,86.36
2018-02-18T01:16:27.761Z,87.12
2018-02-18T01:17:27.774Z,86.46
2018-02-18T01:18:27.786Z,85.32
2018-02-18T01:19:27.831Z,85.61
2018-02-18T01:20:27.820Z,86.55
2018-02-18T01:21:27.833Z,86.18
2018-02-18T01:22:27.841Z,86.65
2018-02-18T01:23:27.855Z,87.02
2018-02-18T01:24:27.890Z,87.50
2018-02-18T01:25:27.884Z,86.93
2018-02-18T01:26:27.928Z,86.08
2018-02-18T01:27:27.913Z,85.61
2018-02-18T01:28:27.928Z,85.80
2018-02-18T01:29:27.940Z,85.51
2018-02-18T01:30:27.997Z,85.51
2018-02-18T01:31:27.968Z,85.32
2018-02-18T01:32:27.999Z,84.94
2018-02-18T01:33:27.997Z,84.38
2018-02-18T01:34:28.006Z,84.85
2018-02-18T01:35:28.018Z,84.75
2018-02-18T01:36:28.053Z,85.32
2018-02-18T01:37:28.045Z,84.56
2018-02-18T01:38:28.059Z,84.28
2018-02-18T01:39:28.075Z,84.56
2018-02-18T01:40:28.110Z,84.38
2018-02-18T01:41:28.104Z,85.32
2018-02-18T01:42:28.116Z,84.47
2018-02-18T01:43:28.160Z,84.19
2018-02-18T01:44:28.140Z,84.56
2018-02-18T01:45:28.158Z,84.28
2018-02-18T01:46:28.173Z,83.52
2018-02-18T01:47:28.184Z,83.62
2018-02-18T01:48:28.201Z,84.19
2018-02-18T01:49:28.244Z,84.38
2018-02-18T01:50:28.227Z,84.28
2018-02-18T01:51:28.234Z,84.56
2018-02-18T01:52:28.250Z,85.23
2018-02-18T01:53:28.268Z,85.42
2018-02-18T01:54:28.293Z,85.32
2018-02-18T01:55:28.293Z,85.32
2018-02-18T01:56:28.307Z,85.23
2018-02-18T01:57:28.315Z,84.94
2018-02-18T01:58:28.357Z,84.85
2018-02-18T01:59:28.344Z,84.56
2018-02-18T02:00:28.365Z,84.28
2018-02-18T02:01:28.372Z,84.85
2018-02-18T02:02:28.383Z,85.51
2018-02-18T02:03:28.421Z,85.42
2018-02-18T02:04:28.415Z,85.23
2018-02-18T02:05:28.446Z,85.04
2018-02-18T02:06:28.443Z,85.70
2018-02-18T02:07:28.455Z,85.32
2018-02-18T02:08:28.462Z,84.47
2018-02-18T02:09:28.484Z,84.19
2018-02-18T02:10:28.534Z,84.66
2018-02-18T02:11:28.506Z,85.13
2018-02-18T02:12:28.525Z,85.51
2018-02-18T02:13:28.532Z,85.61
2018-02-18T02:14:28.547Z,85.51
2018-02-18T02:15:28.564Z,84.94
2018-02-18T02:16:28.613Z,85.32
2018-02-18T02:17:28.585Z,84.85
2018-02-18T02:18:28.608Z,85.61
2018-02-18T02:19:28.620Z,85.42
2018-02-18T02:20:28.636Z,85.61
2018-02-18T02:21:28.646Z,85.42
2018-02-18T02:22:28.689Z,85.80
2018-02-18T02:23:28.680Z,85.04
2018-02-18T02:24:28.681Z,84.47
2018-02-18T02:25:28.694Z,84.28
2018-02-18T02:26:28.710Z,84.19
2018-02-18T02:27:28.749Z,84.56
2018-02-18T02:28:28.738Z,84.38
2018-02-18T02:29:28.752Z,84.47
2018-02-18T02:30:28.786Z,85.04
2018-02-18T02:31:28.780Z,85.32
2018-02-18T02:32:28.796Z,85.80
2018-02-18T02:33:28.843Z,85.32
2018-02-18T02:34:28.820Z,85.70
2018-02-18T02:35:28.837Z,85.70
2018-02-18T02:36:28.858Z,85.04
2018-02-18T02:37:28.861Z,84.47
2018-02-18T02:38:28.908Z,84.66
2018-02-18T02:39:28.886Z,84.75
2018-02-18T02:40:28.898Z,84.47
2018-02-18T02:41:28.916Z,84.00
2018-02-18T02:42:28.937Z,84.75
2018-02-18T02:43:28.962Z,84.38
2018-02-18T02:44:28.959Z,84.94
2018-02-18T02:45:28.970Z,84.47
2018-02-18T02:46:28.982Z,84.38
2018-02-18T02:47:28.991Z,84.09
2018-02-18T02:48:29.046Z,84.09
2018-02-18T02:49:29.023Z,83.81
2018-02-18T02:50:29.039Z,84.00
2018-02-18T02:51:29.051Z,84.85
2018-02-18T02:52:29.065Z,84.85
2018-02-18T02:53:29.090Z,84.75
2018-02-18T02:54:29.088Z,84.94
2018-02-18T02:55:29.122Z,84.47
2018-02-18T02:56:29.120Z,84.94
2018-02-18T02:57:29.130Z,85.23
2018-02-18T02:58:29.141Z,84.75
2018-02-18T02:59:29.158Z,84.85
2018-02-18T03:00:29.214Z,84.47
2018-02-18T03:01:29.192Z,84.19
2018-02-18T03:02:29.203Z,84.28
2018-02-18T03:03:29.208Z,83.71
2018-02-18T03:04:29.225Z,84.33
2018-02-18T03:05:29.268Z,83.81
2018-02-18T03:06:29.251Z,83.90
2018-02-18T03:07:29.265Z,84.42
2018-02-18T03:08:29.279Z,84.38
2018-02-18T03:09:29.297Z,84.38
2018-02-18T03:10:29.325Z,84.71
2018-02-18T03:11:29.320Z,85.19
2018-02-18T03:12:29.332Z,85.28
2018-02-18T03:13:29.365Z,85.04
2018-02-18T03:14:29.352Z,84.66
2018-02-18T03:15:29.374Z,84.56
2018-02-18T03:16:29.392Z,84.38
2018-02-18T03:17:29.399Z,83.71
2018-02-18T03:18:29.433Z,83.90
2018-02-18T03:19:29.424Z,84.05
2018-02-18T03:20:29.486Z,83.29
2018-02-18T03:21:29.454Z,83.76
2018-02-18T03:22:29.473Z,84.09
2018-02-18T03:23:29.475Z,83.48
2018-02-18T03:24:29.499Z,83.71
2018-02-18T03:25:29.524Z,83.01
2018-02-18T03:26:29.516Z,83.86
2018-02-18T03:27:29.540Z,83.52
2018-02-18T03:28:29.548Z,84.00
2018-02-18T03:29:29.559Z,83.95
2018-02-18T03:30:29.610Z,83.86
2018-02-18T03:31:29.596Z,84.71
2018-02-18T03:32:29.605Z,84.61
2018-02-18T03:33:29.613Z,84.71
2018-02-18T03:34:29.630Z,84.61
2018-02-18T03:35:29.645Z,84.71
2018-02-18T03:36:29.683Z,85.19
2018-02-18T03:37:29.660Z,84.81
2018-02-18T03:38:29.682Z,85.00
2018-02-18T03:39:29.698Z,85.28
2018-02-18T03:40:29.701Z,85.38
2018-02-18T03:41:29.748Z,85.85
2018-02-18T03:42:29.731Z,85.94
2018-02-18T03:43:29.746Z,85.94
2018-02-18T03:44:29.763Z,86.41
2018-02-18T03:45:29.769Z,86.04
2018-02-18T03:46:29.801Z,85.66
2018-02-18T03:47:29.797Z,85.09
2018-02-18T03:48:29.815Z,85.47
2018-02-18T03:49:29.822Z,85.38
2018-02-18T03:50:29.855Z,85.28
2018-02-18T03:51:29.846Z,85.66
2018-02-18T03:52:29.865Z,85.09
2018-02-18T03:53:29.893Z,84.52
2018-02-18T03:54:29.890Z,85.19
2018-02-18T03:55:29.941Z,85.47
2018-02-18T03:56:29.917Z,85.94
2018-02-18T03:57:29.926Z,85.85
2018-02-18T03:58:29.941Z,85.32
2018-02-18T03:59:29.952Z,85.19
2018-02-18T04:00:30.000Z,84.81
2018-02-18T04:01:29.977Z,84.71
2018-02-18T04:02:29.995Z,84.42
2018-02-18T04:03:30.022Z,84.42
2018-02-18T04:04:30.033Z,85.00
2018-02-18T04:05:30.039Z,85.00
2018-02-18T04:06:30.065Z,84.66
2018-02-18T04:07:30.060Z,84.85
2018-02-18T04:08:30.123Z,85.13
2018-02-18T04:09:30.081Z,85.32
2018-02-18T04:10:30.102Z,84.90
2018-02-18T04:11:30.118Z,84.28
2018-02-18T04:12:30.129Z,84.56
2018-02-18T04:13:30.165Z,84.42
2018-02-18T04:14:30.255Z,84.47
2018-02-18T04:15:30.181Z,84.23
2018-02-18T04:16:30.186Z,84.09
2018-02-18T04:17:30.192Z,83.71
2018-02-18T04:18:30.224Z,83.81
2018-02-18T04:19:30.227Z,82.86
2018-02-18T04:20:30.244Z,82.86
2018-02-18T04:21:30.260Z,82.48
2018-02-18T04:22:30.262Z,83.24
2018-02-18T04:23:30.293Z,84.23
2018-02-18T04:24:30.323Z,85.19
2018-02-18T04:25:30.305Z,85.42
2018-02-18T04:26:30.317Z,84.85
2018-02-18T04:27:30.342Z,84.52
2018-02-18T04:28:30.366Z,84.61
2018-02-18T04:29:30.356Z,85.47
2018-02-18T04:30:30.376Z,85.23
2018-02-18T04:31:30.393Z,84.23
2018-02-18T04:32:30.399Z,85.19
2018-02-18T04:33:30.446Z,85.19
2018-02-18T04:34:30.417Z,85.28
2018-02-18T04:35:30.437Z,85.42
2018-02-18T04:36:30.455Z,85.66
2018-02-18T04:37:30.468Z,85.85
2018-02-18T04:38:30.496Z,85.42
2018-02-18T04:39:30.490Z,85.57
2018-02-18T04:40:30.501Z,85.28
2018-02-18T04:41:30.515Z,85.47
2018-02-18T04:42:30.539Z,85.32
2018-02-18T04:43:30.571Z,85.66
2018-02-18T04:44:30.556Z,85.75
2018-02-18T04:45:30.573Z,85.23
2018-02-18T04:46:30.585Z,84.81
2018-02-18T04:47:30.632Z,85.00
2018-02-18T04:48:30.612Z,85.28
2018-02-18T04:49:30.623Z,85.57
2018-02-18T04:50:30.651Z,85.57
2018-02-18T04:51:30.650Z,85.47
2018-02-18T04:52:30.687Z,85.04
2018-02-18T04:53:30.711Z,85.51
2018-02-18T04:54:30.692Z,85.38
2018-02-18T04:55:30.705Z,85.61
2018-02-18T04:56:30.722Z,86.04
2018-02-18T04:57:30.732Z,86.04
2018-02-18T04:58:30.763Z,86.04
2018-02-18T04:59:30.752Z,86.13
2018-02-18T05:00:30.775Z,86.13
2018-02-18T05:01:30.784Z,86.13
2018-02-18T05:02:30.792Z,85.80
2018-02-18T05:03:30.830Z,85.57
2018-02-18T05:04:30.820Z,85.13
2018-02-18T05:05:30.851Z,85.38
2018-02-18T05:06:30.848Z,85.94
2018-02-18T05:07:30.858Z,86.32
2018-02-18T05:08:30.896Z,85.42
2018-02-18T05:09:30.886Z,85.38
2018-02-18T05:10:30.951Z,84.81
2018-02-18T05:11:30.914Z,85.94
2018-02-18T05:12:30.925Z,86.04
2018-02-18T05:13:30.941Z,86.18
2018-02-18T05:14:30.965Z,85.99
2018-02-18T05:15:30.970Z,86.32
2018-02-18T05:16:30.999Z,86.22
2018-02-18T05:17:30.992Z,85.94
2018-02-18T05:18:31.018Z,85.51
2018-02-18T05:19:31.026Z,84.81
2018-02-18T05:20:31.053Z,85.47
2018-02-18T05:21:31.053Z,85.09
2018-02-18T05:22:31.058Z,85.47
2018-02-18T05:23:31.079Z,85.66
2018-02-18T05:24:31.093Z,85.57
2018-02-18T05:25:31.139Z,85.75
2018-02-18T05:26:31.121Z,85.28
2018-02-18T05:27:31.128Z,85.66
2018-02-18T05:28:31.149Z,85.47
2018-02-18T05:29:31.181Z,85.47
2018-02-18T05:30:31.189Z,85.47
2018-02-18T05:31:31.204Z,85.94
2018-02-18T05:32:31.243Z,85.85
2018-02-18T05:33:31.255Z,85.94
2018-02-18T05:34:31.238Z,85.85
2018-02-18T05:35:31.244Z,86.13
2018-02-18T05:36:31.253Z,85.85
2018-02-18T05:37:31.263Z,85.42
2018-02-18T05:38:31.280Z,84.56
2018-02-18T05:39:31.333Z,84.38
2018-02-18T05:40:31.307Z,85.38
2018-02-18T05:41:31.328Z,85.85
2018-02-18T05:42:31.332Z,85.70
2018-02-18T05:43:31.352Z,86.13
2018-02-18T05:44:31.416Z,86.60
2018-02-18T05:45:31.383Z,86.70
2018-02-18T05:46:31.413Z,87.08
2018-02-18T05:47:31.429Z,86.41
2018-02-18T05:48:31.432Z,86.32
2018-02-18T05:49:31.470Z,86.70
2018-02-18T05:50:31.445Z,86.70
2018-02-18T05:51:31.461Z,86.89
2018-02-18T05:52:31.488Z,86.70
2018-02-18T05:53:31.489Z,86.98
2018-02-18T05:54:31.517Z,87.17
2018-02-18T05:55:31.566Z,86.89
2018-02-18T05:56:31.536Z,85.94
2018-02-18T05:57:31.547Z,86.13
2018-02-18T05:58:31.573Z,86.70
2018-02-18T05:59:31.572Z,86.08
2018-02-18T06:00:31.600Z,86.27
2018-02-18T06:01:31.591Z,86.83
2018-02-18T06:02:31.609Z,86.55
2018-02-18T06:03:31.612Z,86.70
2018-02-18T06:04:31.645Z,87.17
2018-02-18T06:05:31.659Z,87.27
2018-02-18T06:06:31.656Z,87.46
2018-02-18T06:07:31.667Z,87.46
2018-02-18T06:08:31.707Z,86.60
2018-02-18T06:09:31.683Z,86.60
2018-02-18T06:10:31.698Z,86.51
2018-02-18T06:11:31.713Z,87.36
2018-02-18T06:12:31.729Z,86.08
2018-02-18T06:13:31.761Z,85.94
2018-02-18T06:14:31.755Z,86.55
2018-02-18T06:15:31.795Z,86.04
2018-02-18T06:16:31.777Z,86.18
2018-02-18T06:17:31.792Z,85.89
2018-02-18T06:18:31.814Z,85.13
2018-02-18T06:19:31.819Z,85.32
2018-02-18T06:20:31.835Z,84.85
2018-02-18T06:21:31.879Z,85.28
2018-02-18T06:22:31.863Z,85.28
2018-02-18T06:23:31.876Z,86.04
2018-02-18T06:24:31.886Z,85.99
2018-02-18T06:25:31.894Z,85.89
2018-02-18T06:26:31.920Z,85.57
2018-02-18T06:27:31.947Z,85.47
2018-02-18T06:28:31.941Z,85.32
2018-02-18T06:29:31.947Z,84.66
2018-02-18T06:30:32.633Z,85.13
2018-02-18T06:31:31.975Z,84.56
2018-02-18T06:32:31.991Z,84.90
2018-02-18T06:33:32.031Z,85.28
2018-02-18T06:34:32.130Z,86.13
2018-02-18T06:35:32.038Z,85.94
2018-02-18T06:36:32.048Z,85.75
2018-02-18T06:37:32.061Z,85.94
2018-02-18T06:38:32.089Z,86.22
2018-02-18T06:39:32.094Z,85.85
2018-02-18T06:40:32.132Z,85.94
2018-02-18T06:41:32.118Z,85.00
2018-02-18T06:42:32.126Z,85.75
2018-02-18T06:43:32.143Z,85.32
2018-02-18T06:44:32.153Z,85.38
2018-02-18T06:45:32.284Z,85.85
2018-02-18T06:46:32.181Z,85.47
2018-02-18T06:47:32.283Z,85.75
2018-02-18T06:48:32.258Z,85.32
2018-02-18T06:49:32.216Z,85.61
2018-02-18T06:50:32.255Z,85.47
2018-02-18T06:51:32.265Z,85.57
2018-02-18T06:52:32.260Z,86.04
2018-02-18T06:53:32.268Z,85.42
2018-02-18T06:54:32.301Z,84.85
2018-02-18T06:55:32.301Z,84.56
2018-02-18T06:56:32.314Z,84.09
2018-02-18T06:57:32.349Z,84.09
2018-02-18T06:58:32.359Z,83.90
2018-02-18T06:59:32.353Z,84.09
2018-02-18T07:00:32.366Z,83.81
2018-02-18T07:01:32.373Z,84.38
2018-02-18T07:02:32.391Z,84.56
2018-02-18T07:03:37.131Z,85.23
2018-02-18T07:04:32.422Z,85.32
2018-02-18T07:05:32.430Z,85.38
2018-02-18T07:06:32.442Z,85.09
2018-02-18T07:07:32.459Z,85.66
2018-02-18T07:08:32.470Z,85.09
2018-02-18T07:09:32.505Z,85.38
2018-02-18T07:10:32.492Z,85.47
2018-02-18T07:11:32.506Z,85.38
2018-02-18T07:12:32.523Z,85.57
2018-02-18T07:13:32.561Z,84.81
2018-02-18T07:14:32.552Z,85.89
2018-02-18T07:15:32.564Z,85.94
2018-02-18T07:16:32.579Z,85.51
2018-02-18T07:17:32.590Z,85.32
2018-02-18T07:18:32.632Z,84.85
2018-02-18T07:19:32.638Z,84.56
2018-02-18T07:20:32.632Z,84.61
2018-02-18T07:21:35.685Z,85.57
2018-02-18T07:22:46.383Z,84.85
2018-02-18T07:23:32.910Z,85.28
2018-02-18T07:24:34.054Z,85.28
2018-02-18T07:25:32.751Z,85.00
2018-02-18T07:26:32.724Z,85.04
2018-02-18T07:27:32.868Z,84.38
2018-02-18T07:31:58.048Z,83.24
2018-02-18T07:32:38.187Z,82.57
2018-02-18T07:33:38.044Z,82.48
2018-02-18T07:34:37.994Z,82.67
2018-02-18T07:35:38.072Z,82.76
2018-02-18T07:36:38.041Z,83.43
2018-02-18T07:37:38.089Z,84.09
2018-02-18T07:38:38.030Z,83.81
2018-02-18T07:39:38.073Z,84.09
2018-02-18T07:40:38.061Z,83.48
2018-02-18T07:41:38.068Z,84.66
2018-02-18T07:42:38.116Z,83.71
2018-02-18T07:43:38.095Z,83.52
2018-02-18T07:44:38.115Z,83.62
2018-02-18T07:45:38.121Z,83.33
2018-02-18T07:46:38.132Z,84.09
2018-02-18T07:47:38.171Z,84.47
2018-02-18T07:48:39.066Z,84.75
2018-02-18T07:49:38.175Z,84.19
2018-02-18T07:50:38.210Z,83.71
2018-02-18T07:51:38.207Z,83.90
2018-02-18T07:52:38.210Z,84.00
2018-02-18T07:53:38.242Z,83.52
2018-02-18T07:54:38.352Z,82.48
2018-02-18T07:55:38.289Z,83.14
2018-02-18T07:56:38.266Z,82.20
2018-02-18T07:57:38.286Z,81.06
2018-02-18T07:58:38.296Z,80.53
2018-02-18T07:59:38.317Z,81.53
2018-02-18T08:00:38.357Z,81.82
2018-02-18T08:01:38.333Z,82.76
2018-02-18T08:02:38.352Z,82.76
2018-02-18T08:03:38.367Z,83.24
2018-02-18T08:04:38.384Z,83.52
2018-02-18T08:05:38.430Z,82.86
2018-02-18T08:06:38.410Z,82.20
2018-02-18T08:07:38.419Z,82.57
2018-02-18T08:08:38.440Z,82.57
2018-02-18T08:09:38.445Z,82.48
2018-02-18T08:10:38.623Z,82.48
2018-02-18T08:11:38.468Z,82.86
2018-02-18T08:12:38.480Z,82.86
2018-02-18T08:13:38.498Z,82.95
2018-02-18T08:14:38.505Z,83.05
2018-02-18T08:15:38.523Z,82.20
2018-02-18T08:16:38.580Z,82.48
2018-02-18T08:17:38.558Z,82.48
2018-02-18T08:18:38.560Z,82.39
2018-02-18T08:19:38.608Z,82.10
2018-02-18T08:20:38.592Z,82.57
2018-02-18T08:21:38.619Z,82.76
2018-02-18T08:22:38.625Z,82.95
2018-02-18T08:23:38.627Z,83.33
2018-02-18T08:24:38.641Z,83.05
2018-02-18T08:25:38.664Z,82.48
2018-02-18T08:26:39.126Z,82.86
2018-02-18T08:27:38.678Z,82.39
2018-02-18T08:28:38.693Z,81.92
2018-02-18T08:29:38.723Z,81.44
2018-02-18T08:30:38.724Z,81.34
2018-02-18T08:31:38.738Z,81.06
2018-02-18T08:32:38.761Z,80.34
2018-02-18T08:33:38.790Z,81.44
2018-02-18T08:34:38.768Z,80.96
2018-02-18T08:35:38.783Z,81.34
2018-02-18T08:36:38.796Z,81.25
2018-02-18T08:37:38.815Z,81.34
2018-02-18T08:38:39.590Z,81.34
2018-02-18T08:39:38.833Z,81.53
2018-02-18T08:40:38.849Z,81.63
2018-02-18T08:41:38.863Z,82.10
2018-02-18T08:42:38.907Z,81.92
2018-02-18T08:43:38.893Z,81.44
2018-02-18T08:44:38.902Z,80.96
2018-02-18T08:45:38.917Z,80.82
2018-02-18T08:46:38.959Z,80.06
2018-02-18T08:47:38.975Z,79.30
2018-02-18T08:48:38.968Z,80.06
2018-02-18T08:49:38.969Z,80.06
2018-02-18T08:50:38.984Z,79.68
2018-02-18T08:51:38.996Z,80.15
2018-02-18T08:52:39.028Z,79.96
2018-02-18T08:53:39.028Z,80.02
2018-02-18T08:54:39.036Z,80.53
2018-02-18T08:55:39.049Z,80.96
2018-02-18T08:56:39.109Z,81.25
2018-02-18T08:57:39.076Z,81.53
2018-02-18T08:58:39.093Z,82.20
2018-02-18T08:59:39.101Z,82.20
2018-02-18T09:00:39.111Z,81.82
2018-02-18T09:01:39.172Z,82.57
2018-02-18T09:02:39.144Z,82.01
2018-02-18T09:03:39.152Z,82.01
2018-02-18T09:04:39.175Z,82.29
2018-02-18T09:05:39.181Z,82.29
2018-02-18T09:06:39.225Z,81.34
2018-02-18T09:07:39.234Z,81.53
2018-02-18T09:08:39.224Z,82.01
2018-02-18T09:09:39.233Z,82.57
2018-02-18T09:10:39.250Z,82.39
2018-02-18T09:11:39.268Z,82.29
2018-02-18T09:12:39.312Z,81.29
2018-02-18T09:13:39.302Z,80.34
2018-02-18T09:14:39.300Z,79.87
2018-02-18T09:15:39.336Z,80.91
2018-02-18T09:16:39.343Z,80.06
2018-02-18T09:17:40.112Z,80.06
2018-02-18T09:18:39.390Z,80.15
2018-02-18T09:19:39.369Z,80.63
2018-02-18T09:20:39.388Z,80.63
2018-02-18T09:21:39.398Z,79.68
2018-02-18T09:22:39.448Z,79.68
2018-02-18T09:23:39.466Z,79.68
2018-02-18T09:24:39.440Z,79.87
2018-02-18T09:25:39.453Z,80.06
2018-02-18T09:26:39.465Z,80.15
2018-02-18T09:27:39.475Z,79.21
2018-02-18T09:28:39.526Z,80.15
2018-02-18T09:29:39.502Z,79.30
2018-02-18T09:30:39.515Z,78.73
2018-02-18T09:31:39.529Z,79.87
2018-02-18T09:32:39.542Z,79.34
2018-02-18T09:33:40.133Z,79.25
2018-02-18T09:34:39.612Z,78.77
2018-02-18T09:35:39.603Z,78.87
2018-02-18T09:36:39.596Z,78.64
2018-02-18T09:37:39.789Z,79.68
2018-02-18T09:38:39.620Z,79.87
2018-02-18T09:39:39.635Z,80.25
2018-02-18T09:40:39.706Z,79.58
2018-02-18T09:41:39.665Z,79.58
2018-02-18T09:42:39.696Z,79.39
2018-02-18T09:43:39.721Z,79.58
2018-02-18T09:44:39.701Z,80.06
2018-02-18T09:45:39.746Z,80.06
2018-02-18T09:46:39.729Z,80.15
2018-02-18T09:47:39.743Z,80.06
2018-02-18T09:48:39.762Z,79.21
2018-02-18T09:49:40.005Z,79.87
2018-02-18T09:50:39.817Z,79.58
2018-02-18T09:51:39.799Z,79.02
2018-02-18T09:52:39.816Z,77.35
2018-02-18T09:53:39.828Z,77.06
2018-02-18T09:54:39.837Z,75.93
2018-02-18T09:55:40.145Z,77.06
2018-02-18T09:56:39.903Z,77.16
2018-02-18T09:57:39.876Z,76.03
2018-02-18T09:58:39.904Z,76.40
2018-02-18T09:59:39.906Z,77.16
2018-02-18T10:00:39.961Z,76.92
2018-02-18T10:01:39.929Z,75.96
2018-02-18T10:02:39.953Z,75.40
2018-02-18T10:03:39.965Z,75.11
2018-02-18T10:04:39.970Z,75.11
2018-02-18T10:05:40.019Z,75.40
2018-02-18T10:06:39.995Z,75.02
2018-02-18T10:07:40.651Z,74.26
2018-02-18T10:08:40.030Z,74.92
2018-02-18T10:09:40.040Z,75.11
2018-02-18T10:10:40.070Z,75.68
2018-02-18T10:11:40.065Z,74.54
2018-02-18T10:12:40.079Z,73.97
2018-02-18T10:13:40.094Z,74.26
2018-02-18T10:14:40.102Z,73.69
2018-02-18T10:15:40.150Z,73.79
2018-02-18T10:16:40.131Z,73.69
2018-02-18T10:17:40.142Z,74.54
2018-02-18T10:18:40.157Z,73.97
2018-02-18T10:19:40.171Z,73.94
2018-02-18T10:20:40.206Z,73.31
2018-02-18T10:21:40.195Z,73.41
2018-02-18T10:22:40.244Z,73.50
2018-02-18T10:23:40.226Z,74.32
2018-02-18T10:24:40.319Z,74.54
2018-02-18T10:25:40.254Z,74.26
2018-02-18T10:26:40.460Z,74.69
2018-02-18T10:27:41.175Z,74.79
2018-02-18T10:28:40.431Z,75.93
2018-02-18T10:29:41.238Z,75.36
2018-02-18T10:30:41.132Z,75.45
2018-02-18T10:31:40.347Z,75.55
2018-02-18T10:32:40.357Z,75.93
2018-02-18T10:33:40.800Z,77.25
2018-02-18T10:34:40.373Z,77.35
2018-02-18T10:35:40.385Z,77.06
2018-02-18T10:36:40.397Z,75.45
2018-02-18T10:37:40.417Z,75.68
2018-02-18T10:38:40.426Z,75.96
2018-02-18T10:39:40.460Z,75.31
2018-02-18T10:40:40.495Z,74.73
2018-02-18T10:41:40.473Z,73.97
2018-02-18T10:42:41.777Z,74.16
2018-02-18T10:43:40.500Z,74.16
2018-02-18T10:44:40.511Z,74.79
2018-02-18T10:45:40.523Z,75.68
2018-02-18T10:46:40.568Z,76.25
2018-02-18T10:47:40.580Z,75.59
2018-02-18T10:48:40.562Z,75.49
2018-02-18T10:49:40.581Z,75.21
2018-02-18T10:50:40.589Z,74.16
2018-02-18T10:51:40.635Z,74.45
2018-02-18T10:52:40.639Z,74.26
2018-02-18T10:53:40.629Z,74.45
2018-02-18T10:54:40.644Z,75.21
2018-02-18T10:55:40.663Z,75.45
2018-02-18T10:56:40.690Z,76.50
2018-02-18T10:57:40.688Z,77.06
2018-02-18T10:58:40.719Z,75.59
2018-02-18T10:59:40.782Z,74.92
2018-02-18T11:00:40.726Z,74.54
2018-02-18T11:01:40.741Z,72.27
2018-02-18T11:02:40.754Z,73.31
2018-02-18T11:03:40.787Z,74.26
2018-02-18T11:04:40.782Z,74.07
2018-02-18T11:05:40.794Z,75.21
2018-02-18T11:06:41.479Z,74.92
2018-02-18T11:07:40.843Z,74.49
2018-02-18T11:08:40.856Z,74.30
2018-02-18T11:09:40.856Z,73.54
2018-02-18T11:10:40.900Z,73.69
2018-02-18T11:11:41.526Z,73.03
2018-02-18T11:12:40.891Z,73.03
2018-02-18T11:13:42.632Z,74.64
2018-02-18T11:14:40.920Z,75.21
2018-02-18T11:15:40.971Z,75.15
2018-02-18T11:16:40.948Z,72.21
2018-02-18T11:17:41.013Z,72.40
2018-02-18T11:18:40.970Z,71.55
2018-02-18T11:19:40.985Z,71.36
2018-02-18T11:20:41.027Z,72.08
2018-02-18T11:21:41.032Z,72.17
2018-02-18T11:22:41.030Z,73.46
2018-02-18T11:23:41.062Z,74.45
2018-02-18T11:24:41.049Z,74.73
2018-02-18T11:25:41.066Z,74.88
2018-02-18T11:26:41.082Z,76.12
2018-02-18T11:27:41.143Z,76.03
2018-02-18T11:28:41.113Z,75.49
2018-02-18T11:29:41.140Z,74.26
2018-02-18T11:30:41.134Z,74.16
2018-02-18T11:31:41.151Z,74.54
2018-02-18T11:32:41.164Z,73.88
2018-02-18T11:33:41.197Z,73.50
2018-02-18T11:34:41.191Z,72.68
2018-02-18T11:35:41.220Z,72.45
2018-02-18T11:36:41.215Z,73.60
2018-02-18T11:37:41.233Z,73.12
2018-02-18T11:38:41.262Z,74.64
2018-02-18T11:39:41.261Z,75.21
2018-02-18T11:40:41.307Z,74.64
2018-02-18T11:41:41.287Z,73.41
2018-02-18T11:42:41.295Z,72.84
2018-02-18T11:43:41.314Z,74.45
2018-02-18T11:44:41.331Z,74.07
2018-02-18T11:45:41.370Z,73.79
2018-02-18T11:46:41.355Z,73.03
2018-02-18T11:47:41.365Z,74.16
2018-02-18T11:48:41.379Z,74.26
2018-02-18T11:49:41.398Z,74.45
2018-02-18T11:50:41.436Z,74.16
2018-02-18T11:51:41.419Z,74.35
2018-02-18T11:52:41.437Z,73.97
2018-02-18T11:53:41.449Z,73.41
2018-02-18T11:54:42.288Z,72.64
2018-02-18T11:55:42.064Z,74.26
2018-02-18T11:56:41.487Z,73.69
2018-02-18T11:57:41.560Z,73.88
2018-02-18T11:58:41.531Z,72.40
2018-02-18T11:59:41.531Z,72.55
2018-02-18T12:00:41.544Z,73.60
2018-02-18T12:01:41.800Z,73.79
2018-02-18T12:02:41.617Z,72.55
2018-02-18T12:03:41.634Z,73.60
2018-02-18T12:04:41.654Z,73.79
2018-02-18T12:05:41.652Z,73.50
2018-02-18T12:06:41.620Z,73.88
2018-02-18T12:07:41.649Z,73.79
2018-02-18T12:08:41.665Z,73.69
2018-02-18T12:09:41.663Z,72.14
2018-02-18T12:10:41.699Z,72.74
2018-02-18T12:11:41.705Z,72.45
2018-02-18T12:12:41.699Z,71.45
2018-02-18T12:13:41.729Z,71.51
2018-02-18T12:14:41.730Z,72.17
2018-02-18T12:15:41.764Z,73.22
2018-02-18T12:16:41.757Z,72.17
2018-02-18T12:17:41.803Z,71.89
2018-02-18T12:18:41.785Z,72.40
2018-02-18T12:19:41.795Z,71.36
2018-02-18T12:20:41.810Z,70.56
2018-02-18T12:21:41.846Z,71.89
2018-02-18T12:22:41.857Z,72.36
2018-02-18T12:23:41.852Z,73.37
2018-02-18T12:24:41.867Z,73.94
2018-02-18T12:25:41.932Z,73.50
2018-02-18T12:26:41.894Z,73.84
2018-02-18T12:27:41.905Z,74.07
2018-02-18T12:28:41.920Z,73.03
2018-02-18T12:29:41.952Z,73.22
2018-02-18T12:30:42.017Z,72.27
2018-02-18T12:31:41.975Z,72.21
2018-02-18T12:32:41.972Z,71.41
2018-02-18T12:33:41.987Z,72.42
2018-02-18T12:34:42.003Z,74.51
2018-02-18T12:35:42.038Z,74.35
2018-02-18T12:36:42.043Z,72.36
2018-02-18T12:37:42.040Z,72.64
2018-02-18T12:38:42.057Z,72.74
2018-02-18T12:39:42.066Z,73.72
2018-02-18T12:40:42.161Z,73.35
2018-02-18T12:41:42.094Z,71.80
2018-02-18T12:42:42.111Z,71.80
2018-02-18T12:43:42.128Z,73.27
2018-02-18T12:44:42.154Z,73.88
2018-02-18T12:45:42.173Z,73.79
2018-02-18T12:46:42.181Z,73.22
2018-02-18T12:47:42.288Z,73.97
2018-02-18T12:48:42.195Z,73.97
2018-02-18T12:49:42.350Z,73.60
2018-02-18T12:50:42.221Z,74.07
2018-02-18T12:51:42.284Z,74.92
2018-02-18T12:52:42.255Z,75.40
2018-02-18T12:53:42.288Z,73.88
2018-02-18T12:54:42.341Z,74.16
2018-02-18T12:55:42.284Z,74.39